sensor_id;sensor_type;location;lat;lon;timestamp;P1;durP1;ratioP1;P2;durP2;ratioP2
4508;SDS011;2267;48.816;9.230;2023-07-02T00:00:07;4.47;;;4.07;;
4508;SDS011;2267;48.816;9.230;2023-07-02T00:02:35;3.30;;;2.77;;
4508;SDS011;2267;48.816;9.230;2023-07-02T00:05:03;4.27;;;3.43;;
4508;SDS011;2267;48.816;9.230;2023-07-02T00:07:30;3.73;;;3.43;;
4508;SDS011;2267;48.816;9.230;2023-07-02T00:09:57;4.73;;;4.33;;
4508;SDS011;2267;48.816;9.230;2023-07-02T00:12:24;4.37;;;3.70;;
4508;SDS011;2267;48.816;9.230;2023-07-02T00:14:51;3.60;;;3.30;;
4508;SDS011;2267;48.816;9.230;2023-07-02T00:17:19;3.50;;;3.20;;
4508;SDS011;2267;48.816;9.230;2023-07-02T00:19:47;5.30;;;4.30;;
4508;SDS011;2267;48.816;9.230;2023-07-02T00:22:18;4.10;;;3.67;;
4508;SDS011;2267;48.816;9.230;2023-07-02T00:24:45;4.83;;;3.47;;
4508;SDS011;2267;48.816;9.230;2023-07-02T00:27:12;5.10;;;3.77;;
4508;SDS011;2267;48.816;9.230;2023-07-02T00:29:39;3.80;;;3.30;;
4508;SDS011;2267;48.816;9.230;2023-07-02T00:32:07;5.23;;;4.10;;
4508;SDS011;2267;48.816;9.230;2023-07-02T00:34:34;3.70;;;3.40;;
4508;SDS011;2267;48.816;9.230;2023-07-02T00:37:01;6.53;;;3.60;;
4508;SDS011;2267;48.816;9.230;2023-07-02T00:39:27;4.10;;;3.47;;
4508;SDS011;2267;48.816;9.230;2023-07-02T00:41:59;3.47;;;2.90;;
4508;SDS011;2267;48.816;9.230;2023-07-02T00:44:30;3.40;;;3.10;;
4508;SDS011;2267;48.816;9.230;2023-07-02T00:46:57;5.47;;;3.40;;
4508;SDS011;2267;48.816;9.230;2023-07-02T00:49:24;4.03;;;3.40;;
4508;SDS011;2267;48.816;9.230;2023-07-02T00:51:51;3.83;;;3.50;;
4508;SDS011;2267;48.816;9.230;2023-07-02T00:54:18;7.10;;;3.87;;
4508;SDS011;2267;48.816;9.230;2023-07-02T00:56:45;4.40;;;4.00;;
4508;SDS011;2267;48.816;9.230;2023-07-02T00:59:13;3.53;;;3.23;;
4508;SDS011;2267;48.816;9.230;2023-07-02T01:01:40;4.73;;;3.90;;
4508;SDS011;2267;48.816;9.230;2023-07-02T01:04:07;3.93;;;3.63;;
4508;SDS011;2267;48.816;9.230;2023-07-02T01:06:35;4.90;;;3.17;;
4508;SDS011;2267;48.816;9.230;2023-07-02T01:09:03;6.27;;;3.33;;
4508;SDS011;2267;48.816;9.230;2023-07-02T01:11:32;3.23;;;2.93;;
4508;SDS011;2267;48.816;9.230;2023-07-02T01:14:08;3.30;;;3.00;;
4508;SDS011;2267;48.816;9.230;2023-07-02T01:16:37;4.30;;;2.70;;
4508;SDS011;2267;48.816;9.230;2023-07-02T01:19:15;3.53;;;3.23;;
4508;SDS011;2267;48.816;9.230;2023-07-02T01:21:48;4.73;;;3.43;;
4508;SDS011;2267;48.816;9.230;2023-07-02T01:24:16;2.93;;;2.60;;
4508;SDS011;2267;48.816;9.230;2023-07-02T01:26:43;3.73;;;2.80;;
4508;SDS011;2267;48.816;9.230;2023-07-02T01:31:42;3.07;;;2.80;;
4508;SDS011;2267;48.816;9.230;2023-07-02T01:34:10;3.60;;;3.00;;
4508;SDS011;2267;48.816;9.230;2023-07-02T01:36:37;3.60;;;3.30;;
4508;SDS011;2267;48.816;9.230;2023-07-02T01:39:04;3.40;;;2.87;;
4508;SDS011;2267;48.816;9.230;2023-07-02T01:41:36;4.03;;;3.20;;
4508;SDS011;2267;48.816;9.230;2023-07-02T01:44:08;4.13;;;3.03;;
4508;SDS011;2267;48.816;9.230;2023-07-02T01:46:35;4.23;;;3.20;;
4508;SDS011;2267;48.816;9.230;2023-07-02T01:49:02;3.60;;;3.30;;
4508;SDS011;2267;48.816;9.230;2023-07-02T01:51:29;4.93;;;3.30;;
4508;SDS011;2267;48.816;9.230;2023-07-02T01:53:55;3.13;;;2.83;;
4508;SDS011;2267;48.816;9.230;2023-07-02T01:56:22;3.17;;;2.87;;
4508;SDS011;2267;48.816;9.230;2023-07-02T01:58:49;3.10;;;2.80;;
4508;SDS011;2267;48.816;9.230;2023-07-02T02:01:16;3.63;;;3.33;;
4508;SDS011;2267;48.816;9.230;2023-07-02T02:03:42;3.40;;;2.90;;
4508;SDS011;2267;48.816;9.230;2023-07-02T02:06:10;3.90;;;3.00;;
4508;SDS011;2267;48.816;9.230;2023-07-02T02:08:36;3.27;;;2.97;;
4508;SDS011;2267;48.816;9.230;2023-07-02T02:11:03;5.00;;;3.20;;
4508;SDS011;2267;48.816;9.230;2023-07-02T02:13:30;6.63;;;3.07;;
4508;SDS011;2267;48.816;9.230;2023-07-02T02:15:57;3.40;;;3.07;;
4508;SDS011;2267;48.816;9.230;2023-07-02T02:18:24;3.87;;;3.40;;
4508;SDS011;2267;48.816;9.230;2023-07-02T02:20:51;3.23;;;2.77;;
4508;SDS011;2267;48.816;9.230;2023-07-02T02:23:17;3.70;;;3.00;;
4508;SDS011;2267;48.816;9.230;2023-07-02T02:25:44;3.80;;;2.90;;
4508;SDS011;2267;48.816;9.230;2023-07-02T02:28:11;2.83;;;2.63;;
4508;SDS011;2267;48.816;9.230;2023-07-02T02:30:38;4.17;;;3.20;;
4508;SDS011;2267;48.816;9.230;2023-07-02T02:33:05;3.27;;;2.97;;
4508;SDS011;2267;48.816;9.230;2023-07-02T02:35:32;3.90;;;3.27;;
4508;SDS011;2267;48.816;9.230;2023-07-02T02:38:03;4.10;;;3.10;;
4508;SDS011;2267;48.816;9.230;2023-07-02T02:40:30;4.90;;;3.13;;
4508;SDS011;2267;48.816;9.230;2023-07-02T02:42:57;3.63;;;3.20;;
4508;SDS011;2267;48.816;9.230;2023-07-02T02:45:24;3.80;;;3.13;;
4508;SDS011;2267;48.816;9.230;2023-07-02T02:47:51;4.13;;;3.10;;
4508;SDS011;2267;48.816;9.230;2023-07-02T02:50:18;4.83;;;3.43;;
4508;SDS011;2267;48.816;9.230;2023-07-02T02:52:46;3.60;;;3.13;;
4508;SDS011;2267;48.816;9.230;2023-07-02T02:55:12;3.50;;;2.90;;
4508;SDS011;2267;48.816;9.230;2023-07-02T02:57:40;3.73;;;2.87;;
4508;SDS011;2267;48.816;9.230;2023-07-02T03:00:06;3.30;;;3.00;;
4508;SDS011;2267;48.816;9.230;2023-07-02T03:02:35;3.57;;;2.80;;
4508;SDS011;2267;48.816;9.230;2023-07-02T03:05:02;7.13;;;3.40;;
4508;SDS011;2267;48.816;9.230;2023-07-02T03:07:29;3.80;;;3.50;;
4508;SDS011;2267;48.816;9.230;2023-07-02T03:09:57;3.03;;;2.73;;
4508;SDS011;2267;48.816;9.230;2023-07-02T03:12:27;4.77;;;3.40;;
4508;SDS011;2267;48.816;9.230;2023-07-02T03:14:54;3.60;;;2.83;;
4508;SDS011;2267;48.816;9.230;2023-07-02T03:17:21;3.90;;;3.47;;
4508;SDS011;2267;48.816;9.230;2023-07-02T03:19:49;3.30;;;3.00;;
4508;SDS011;2267;48.816;9.230;2023-07-02T03:22:16;5.07;;;3.83;;
4508;SDS011;2267;48.816;9.230;2023-07-02T03:24:43;4.13;;;3.30;;
4508;SDS011;2267;48.816;9.230;2023-07-02T03:27:10;4.03;;;3.70;;
4508;SDS011;2267;48.816;9.230;2023-07-02T03:29:37;3.63;;;3.23;;
4508;SDS011;2267;48.816;9.230;2023-07-02T03:32:05;3.73;;;3.13;;
4508;SDS011;2267;48.816;9.230;2023-07-02T03:34:32;5.53;;;3.40;;
4508;SDS011;2267;48.816;9.230;2023-07-02T03:36:59;5.30;;;4.10;;
4508;SDS011;2267;48.816;9.230;2023-07-02T03:39:26;4.07;;;3.67;;
4508;SDS011;2267;48.816;9.230;2023-07-02T03:41:53;4.17;;;3.40;;
4508;SDS011;2267;48.816;9.230;2023-07-02T03:44:20;5.33;;;4.27;;
4508;SDS011;2267;48.816;9.230;2023-07-02T03:46:47;6.33;;;3.30;;
4508;SDS011;2267;48.816;9.230;2023-07-02T03:49:14;4.53;;;4.03;;
4508;SDS011;2267;48.816;9.230;2023-07-02T03:51:41;4.83;;;3.80;;
4508;SDS011;2267;48.816;9.230;2023-07-02T03:54:08;6.80;;;4.80;;
4508;SDS011;2267;48.816;9.230;2023-07-02T03:56:35;7.23;;;4.60;;
4508;SDS011;2267;48.816;9.230;2023-07-02T03:59:01;4.70;;;3.80;;
4508;SDS011;2267;48.816;9.230;2023-07-02T04:01:28;4.90;;;4.07;;
4508;SDS011;2267;48.816;9.230;2023-07-02T04:03:55;5.13;;;4.20;;
4508;SDS011;2267;48.816;9.230;2023-07-02T04:06:23;5.87;;;3.93;;
4508;SDS011;2267;48.816;9.230;2023-07-02T04:08:50;4.10;;;3.70;;
4508;SDS011;2267;48.816;9.230;2023-07-02T04:11:17;8.50;;;4.80;;
4508;SDS011;2267;48.816;9.230;2023-07-02T04:13:43;6.40;;;4.23;;
4508;SDS011;2267;48.816;9.230;2023-07-02T04:16:10;5.07;;;3.67;;
4508;SDS011;2267;48.816;9.230;2023-07-02T04:18:37;5.67;;;4.50;;
4508;SDS011;2267;48.816;9.230;2023-07-02T04:21:04;8.77;;;4.70;;
4508;SDS011;2267;48.816;9.230;2023-07-02T04:23:31;5.93;;;4.10;;
4508;SDS011;2267;48.816;9.230;2023-07-02T04:25:58;6.50;;;4.43;;
4508;SDS011;2267;48.816;9.230;2023-07-02T04:28:45;6.77;;;5.30;;
4508;SDS011;2267;48.816;9.230;2023-07-02T04:31:12;9.23;;;5.60;;
4508;SDS011;2267;48.816;9.230;2023-07-02T04:33:39;7.50;;;5.07;;
4508;SDS011;2267;48.816;9.230;2023-07-02T04:36:06;4.80;;;4.30;;
4508;SDS011;2267;48.816;9.230;2023-07-02T04:38:33;4.80;;;3.97;;
4508;SDS011;2267;48.816;9.230;2023-07-02T04:41:00;7.03;;;4.80;;
4508;SDS011;2267;48.816;9.230;2023-07-02T04:43:32;4.90;;;4.37;;
4508;SDS011;2267;48.816;9.230;2023-07-02T04:46:00;5.00;;;4.40;;
4508;SDS011;2267;48.816;9.230;2023-07-02T04:48:27;6.50;;;5.03;;
4508;SDS011;2267;48.816;9.230;2023-07-02T04:50:54;6.27;;;4.67;;
4508;SDS011;2267;48.816;9.230;2023-07-02T04:53:21;6.53;;;5.13;;
4508;SDS011;2267;48.816;9.230;2023-07-02T04:55:48;5.90;;;5.30;;
4508;SDS011;2267;48.816;9.230;2023-07-02T04:58:15;5.67;;;4.50;;
4508;SDS011;2267;48.816;9.230;2023-07-02T05:00:42;5.87;;;4.50;;
4508;SDS011;2267;48.816;9.230;2023-07-02T05:03:09;8.70;;;5.20;;
4508;SDS011;2267;48.816;9.230;2023-07-02T05:05:36;5.33;;;4.63;;
4508;SDS011;2267;48.816;9.230;2023-07-02T05:08:02;5.17;;;4.67;;
4508;SDS011;2267;48.816;9.230;2023-07-02T05:10:31;7.33;;;5.50;;
4508;SDS011;2267;48.816;9.230;2023-07-02T05:12:58;5.30;;;4.57;;
4508;SDS011;2267;48.816;9.230;2023-07-02T05:15:25;6.10;;;4.83;;
4508;SDS011;2267;48.816;9.230;2023-07-02T05:17:52;6.03;;;5.43;;
4508;SDS011;2267;48.816;9.230;2023-07-02T05:20:19;6.83;;;5.10;;
4508;SDS011;2267;48.816;9.230;2023-07-02T05:22:46;4.40;;;3.93;;
4508;SDS011;2267;48.816;9.230;2023-07-02T05:25:13;6.10;;;4.37;;
4508;SDS011;2267;48.816;9.230;2023-07-02T05:27:40;5.60;;;5.00;;
4508;SDS011;2267;48.816;9.230;2023-07-02T05:30:07;5.40;;;4.80;;
4508;SDS011;2267;48.816;9.230;2023-07-02T05:32:34;7.03;;;4.90;;
4508;SDS011;2267;48.816;9.230;2023-07-02T05:35:01;7.33;;;4.87;;
4508;SDS011;2267;48.816;9.230;2023-07-02T05:37:28;4.30;;;3.80;;
4508;SDS011;2267;48.816;9.230;2023-07-02T05:39:55;6.53;;;4.73;;
4508;SDS011;2267;48.816;9.230;2023-07-02T05:42:22;5.43;;;4.77;;
4508;SDS011;2267;48.816;9.230;2023-07-02T05:44:49;6.77;;;4.67;;
4508;SDS011;2267;48.816;9.230;2023-07-02T05:47:16;6.80;;;4.77;;
4508;SDS011;2267;48.816;9.230;2023-07-02T05:49:43;5.13;;;4.30;;
4508;SDS011;2267;48.816;9.230;2023-07-02T05:52:10;6.83;;;4.67;;
4508;SDS011;2267;48.816;9.230;2023-07-02T05:54:40;5.77;;;4.80;;
4508;SDS011;2267;48.816;9.230;2023-07-02T05:57:07;8.17;;;5.20;;
4508;SDS011;2267;48.816;9.230;2023-07-02T05:59:34;6.30;;;5.40;;
4508;SDS011;2267;48.816;9.230;2023-07-02T06:02:01;7.73;;;5.80;;
4508;SDS011;2267;48.816;9.230;2023-07-02T06:04:28;9.40;;;5.13;;
4508;SDS011;2267;48.816;9.230;2023-07-02T06:06:55;6.10;;;5.33;;
4508;SDS011;2267;48.816;9.230;2023-07-02T06:09:21;6.13;;;5.53;;
4508;SDS011;2267;48.816;9.230;2023-07-02T06:11:48;10.37;;;6.97;;
4508;SDS011;2267;48.816;9.230;2023-07-02T06:14:15;9.37;;;6.20;;
4508;SDS011;2267;48.816;9.230;2023-07-02T06:16:42;8.10;;;6.80;;
4508;SDS011;2267;48.816;9.230;2023-07-02T06:19:09;9.53;;;6.80;;
4508;SDS011;2267;48.816;9.230;2023-07-02T06:21:36;9.07;;;6.50;;
4508;SDS011;2267;48.816;9.230;2023-07-02T06:24:03;8.93;;;6.00;;
4508;SDS011;2267;48.816;9.230;2023-07-02T06:26:30;10.53;;;6.87;;
4508;SDS011;2267;48.816;9.230;2023-07-02T06:28:58;8.43;;;6.93;;
4508;SDS011;2267;48.816;9.230;2023-07-02T06:31:26;6.80;;;6.17;;
4508;SDS011;2267;48.816;9.230;2023-07-02T06:33:53;8.10;;;7.30;;
4508;SDS011;2267;48.816;9.230;2023-07-02T06:36:19;9.17;;;8.00;;
4508;SDS011;2267;48.816;9.230;2023-07-02T06:38:46;11.30;;;8.93;;
4508;SDS011;2267;48.816;9.230;2023-07-02T06:41:14;10.90;;;8.87;;
4508;SDS011;2267;48.816;9.230;2023-07-02T06:43:41;9.97;;;8.97;;
4508;SDS011;2267;48.816;9.230;2023-07-02T06:46:10;9.77;;;8.87;;
4508;SDS011;2267;48.816;9.230;2023-07-02T06:48:38;10.30;;;9.23;;
4508;SDS011;2267;48.816;9.230;2023-07-02T06:51:05;9.87;;;8.83;;
4508;SDS011;2267;48.816;9.230;2023-07-02T06:53:33;12.43;;;10.37;;
4508;SDS011;2267;48.816;9.230;2023-07-02T06:56:00;11.00;;;9.90;;
4508;SDS011;2267;48.816;9.230;2023-07-02T06:58:27;11.90;;;10.17;;
4508;SDS011;2267;48.816;9.230;2023-07-02T07:00:54;12.70;;;9.87;;
4508;SDS011;2267;48.816;9.230;2023-07-02T07:03:20;12.27;;;9.80;;
4508;SDS011;2267;48.816;9.230;2023-07-02T07:05:47;14.13;;;9.30;;
4508;SDS011;2267;48.816;9.230;2023-07-02T07:08:15;9.97;;;8.93;;
4508;SDS011;2267;48.816;9.230;2023-07-02T07:10:42;10.70;;;9.57;;
4508;SDS011;2267;48.816;9.230;2023-07-02T07:13:08;11.13;;;9.87;;
4508;SDS011;2267;48.816;9.230;2023-07-02T07:15:37;10.13;;;9.03;;
4508;SDS011;2267;48.816;9.230;2023-07-02T07:18:04;11.07;;;9.90;;
4508;SDS011;2267;48.816;9.230;2023-07-02T07:20:31;10.73;;;9.63;;
4508;SDS011;2267;48.816;9.230;2023-07-02T07:22:58;11.17;;;9.50;;
4508;SDS011;2267;48.816;9.230;2023-07-02T07:25:25;12.43;;;10.80;;
4508;SDS011;2267;48.816;9.230;2023-07-02T07:27:51;12.60;;;10.90;;
4508;SDS011;2267;48.816;9.230;2023-07-02T07:30:19;13.60;;;11.27;;
4508;SDS011;2267;48.816;9.230;2023-07-02T07:32:50;13.70;;;11.57;;
4508;SDS011;2267;48.816;9.230;2023-07-02T07:35:17;15.47;;;12.70;;
4508;SDS011;2267;48.816;9.230;2023-07-02T07:37:45;13.87;;;12.50;;
4508;SDS011;2267;48.816;9.230;2023-07-02T07:40:12;15.87;;;12.30;;
4508;SDS011;2267;48.816;9.230;2023-07-02T07:42:39;14.60;;;11.70;;
4508;SDS011;2267;48.816;9.230;2023-07-02T07:45:09;12.77;;;9.60;;
4508;SDS011;2267;48.816;9.230;2023-07-02T07:47:37;15.20;;;11.40;;
4508;SDS011;2267;48.816;9.230;2023-07-02T07:50:05;14.23;;;12.30;;
4508;SDS011;2267;48.816;9.230;2023-07-02T07:52:39;13.03;;;11.00;;
4508;SDS011;2267;48.816;9.230;2023-07-02T07:55:06;14.03;;;12.63;;
4508;SDS011;2267;48.816;9.230;2023-07-02T07:57:34;14.27;;;12.77;;
4508;SDS011;2267;48.816;9.230;2023-07-02T08:00:02;15.63;;;14.03;;
4508;SDS011;2267;48.816;9.230;2023-07-02T08:02:32;14.50;;;13.10;;
4508;SDS011;2267;48.816;9.230;2023-07-02T08:04:58;16.07;;;14.47;;
4508;SDS011;2267;48.816;9.230;2023-07-02T08:07:25;17.47;;;14.17;;
4508;SDS011;2267;48.816;9.230;2023-07-02T08:09:52;17.33;;;13.03;;
4508;SDS011;2267;48.816;9.230;2023-07-02T08:12:19;16.13;;;14.53;;
4508;SDS011;2267;48.816;9.230;2023-07-02T08:14:46;15.33;;;13.87;;
4508;SDS011;2267;48.816;9.230;2023-07-02T08:17:13;16.60;;;14.73;;
4508;SDS011;2267;48.816;9.230;2023-07-02T08:19:40;15.57;;;13.60;;
4508;SDS011;2267;48.816;9.230;2023-07-02T08:22:07;17.07;;;15.27;;
4508;SDS011;2267;48.816;9.230;2023-07-02T08:24:34;18.50;;;15.07;;
4508;SDS011;2267;48.816;9.230;2023-07-02T08:27:00;18.10;;;15.67;;
4508;SDS011;2267;48.816;9.230;2023-07-02T08:29:29;15.17;;;13.37;;
4508;SDS011;2267;48.816;9.230;2023-07-02T08:31:56;16.83;;;15.13;;
4508;SDS011;2267;48.816;9.230;2023-07-02T08:34:24;16.33;;;14.67;;
4508;SDS011;2267;48.816;9.230;2023-07-02T08:36:51;15.20;;;13.70;;
4508;SDS011;2267;48.816;9.230;2023-07-02T08:39:17;14.63;;;13.23;;
4508;SDS011;2267;48.816;9.230;2023-07-02T08:41:45;18.70;;;14.60;;
4508;SDS011;2267;48.816;9.230;2023-07-02T08:44:13;16.27;;;13.30;;
4508;SDS011;2267;48.816;9.230;2023-07-02T08:46:41;15.30;;;13.80;;
4508;SDS011;2267;48.816;9.230;2023-07-02T08:49:09;15.70;;;14.03;;
4508;SDS011;2267;48.816;9.230;2023-07-02T08:51:35;17.63;;;14.00;;
4508;SDS011;2267;48.816;9.230;2023-07-02T08:54:03;15.07;;;13.47;;
4508;SDS011;2267;48.816;9.230;2023-07-02T08:56:30;14.93;;;13.43;;
4508;SDS011;2267;48.816;9.230;2023-07-02T08:58:57;14.80;;;13.33;;
4508;SDS011;2267;48.816;9.230;2023-07-02T09:01:24;15.73;;;14.17;;
4508;SDS011;2267;48.816;9.230;2023-07-02T09:03:51;14.40;;;12.90;;
4508;SDS011;2267;48.816;9.230;2023-07-02T09:06:18;14.40;;;12.53;;
4508;SDS011;2267;48.816;9.230;2023-07-02T09:08:45;15.83;;;12.77;;
4508;SDS011;2267;48.816;9.230;2023-07-02T09:11:12;13.03;;;11.70;;
4508;SDS011;2267;48.816;9.230;2023-07-02T09:16:28;14.17;;;12.73;;
4508;SDS011;2267;48.816;9.230;2023-07-02T09:19:07;13.47;;;12.07;;
4508;SDS011;2267;48.816;9.230;2023-07-02T09:21:44;14.27;;;12.50;;
4508;SDS011;2267;48.816;9.230;2023-07-02T09:24:16;14.17;;;12.50;;
4508;SDS011;2267;48.816;9.230;2023-07-02T09:34:30;16.93;;;12.73;;
4508;SDS011;2267;48.816;9.230;2023-07-02T09:36:58;14.97;;;13.43;;
4508;SDS011;2267;48.816;9.230;2023-07-02T09:39:29;14.50;;;13.10;;
4508;SDS011;2267;48.816;9.230;2023-07-02T09:42:02;14.27;;;12.97;;
4508;SDS011;2267;48.816;9.230;2023-07-02T09:44:33;15.63;;;13.57;;
4508;SDS011;2267;48.816;9.230;2023-07-02T09:47:04;14.30;;;12.90;;
4508;SDS011;2267;48.816;9.230;2023-07-02T09:49:33;13.30;;;12.00;;
4508;SDS011;2267;48.816;9.230;2023-07-02T09:52:08;17.60;;;13.97;;
4508;SDS011;2267;48.816;9.230;2023-07-02T09:54:36;14.40;;;12.00;;
4508;SDS011;2267;48.816;9.230;2023-07-02T09:57:04;13.67;;;12.37;;
4508;SDS011;2267;48.816;9.230;2023-07-02T09:59:34;17.13;;;14.17;;
4508;SDS011;2267;48.816;9.230;2023-07-02T10:02:02;13.77;;;12.30;;
4508;SDS011;2267;48.816;9.230;2023-07-02T10:04:39;16.40;;;13.23;;
4508;SDS011;2267;48.816;9.230;2023-07-02T10:07:10;13.87;;;12.60;;
4508;SDS011;2267;48.816;9.230;2023-07-02T10:09:43;14.73;;;13.43;;
4508;SDS011;2267;48.816;9.230;2023-07-02T10:12:17;13.87;;;12.47;;
4508;SDS011;2267;48.816;9.230;2023-07-02T10:14:54;14.80;;;13.20;;
4508;SDS011;2267;48.816;9.230;2023-07-02T10:17:53;15.67;;;12.30;;
4508;SDS011;2267;48.816;9.230;2023-07-02T10:20:30;14.70;;;13.23;;
4508;SDS011;2267;48.816;9.230;2023-07-02T10:23:00;15.17;;;13.57;;
4508;SDS011;2267;48.816;9.230;2023-07-02T10:25:29;15.83;;;14.20;;
4508;SDS011;2267;48.816;9.230;2023-07-02T10:28:01;14.87;;;13.43;;
4508;SDS011;2267;48.816;9.230;2023-07-02T10:35:39;14.60;;;13.17;;
4508;SDS011;2267;48.816;9.230;2023-07-02T10:38:29;14.80;;;13.30;;
4508;SDS011;2267;48.816;9.230;2023-07-02T10:40:56;15.00;;;13.43;;
4508;SDS011;2267;48.816;9.230;2023-07-02T10:43:33;15.87;;;14.27;;
4508;SDS011;2267;48.816;9.230;2023-07-02T10:46:00;15.23;;;13.63;;
4508;SDS011;2267;48.816;9.230;2023-07-02T10:48:29;15.60;;;14.13;;
4508;SDS011;2267;48.816;9.230;2023-07-02T10:50:57;16.17;;;14.50;;
4508;SDS011;2267;48.816;9.230;2023-07-02T10:53:24;14.43;;;13.13;;
4508;SDS011;2267;48.816;9.230;2023-07-02T10:55:54;16.83;;;15.07;;
4508;SDS011;2267;48.816;9.230;2023-07-02T10:58:23;16.77;;;14.30;;
4508;SDS011;2267;48.816;9.230;2023-07-02T11:00:51;15.57;;;14.17;;
4508;SDS011;2267;48.816;9.230;2023-07-02T11:05:49;15.10;;;13.60;;
4508;SDS011;2267;48.816;9.230;2023-07-02T11:08:17;16.23;;;14.83;;
4508;SDS011;2267;48.816;9.230;2023-07-02T11:10:47;16.13;;;14.43;;
4508;SDS011;2267;48.816;9.230;2023-07-02T11:13:20;14.77;;;13.37;;
4508;SDS011;2267;48.816;9.230;2023-07-02T11:15:48;15.40;;;14.00;;
4508;SDS011;2267;48.816;9.230;2023-07-02T11:18:16;16.20;;;14.60;;
4508;SDS011;2267;48.816;9.230;2023-07-02T11:20:45;14.90;;;13.30;;
4508;SDS011;2267;48.816;9.230;2023-07-02T11:23:22;14.73;;;13.37;;
4508;SDS011;2267;48.816;9.230;2023-07-02T11:26:00;14.57;;;13.07;;
4508;SDS011;2267;48.816;9.230;2023-07-02T11:28:29;14.70;;;13.00;;
4508;SDS011;2267;48.816;9.230;2023-07-02T11:30:57;15.60;;;14.00;;
4508;SDS011;2267;48.816;9.230;2023-07-02T11:33:38;15.70;;;14.20;;
4508;SDS011;2267;48.816;9.230;2023-07-02T11:36:06;15.77;;;14.13;;
4508;SDS011;2267;48.816;9.230;2023-07-02T11:38:35;15.77;;;14.13;;
4508;SDS011;2267;48.816;9.230;2023-07-02T11:41:03;14.13;;;12.63;;
4508;SDS011;2267;48.816;9.230;2023-07-02T11:43:30;15.03;;;13.53;;
4508;SDS011;2267;48.816;9.230;2023-07-02T11:45:58;14.80;;;13.30;;
4508;SDS011;2267;48.816;9.230;2023-07-02T11:48:25;14.07;;;12.87;;
4508;SDS011;2267;48.816;9.230;2023-07-02T11:50:52;15.37;;;13.83;;
4508;SDS011;2267;48.816;9.230;2023-07-02T11:53:19;14.77;;;13.37;;
4508;SDS011;2267;48.816;9.230;2023-07-02T11:55:46;15.63;;;14.00;;
4508;SDS011;2267;48.816;9.230;2023-07-02T11:58:13;15.03;;;13.43;;
4508;SDS011;2267;48.816;9.230;2023-07-02T12:00:40;15.73;;;13.60;;
4508;SDS011;2267;48.816;9.230;2023-07-02T12:03:07;16.83;;;15.00;;
4508;SDS011;2267;48.816;9.230;2023-07-02T12:05:34;16.87;;;14.50;;
4508;SDS011;2267;48.816;9.230;2023-07-02T12:08:01;14.53;;;13.13;;
4508;SDS011;2267;48.816;9.230;2023-07-02T12:10:29;14.83;;;13.00;;
4508;SDS011;2267;48.816;9.230;2023-07-02T12:12:56;15.70;;;13.70;;
4508;SDS011;2267;48.816;9.230;2023-07-02T12:15:22;15.73;;;14.23;;
4508;SDS011;2267;48.816;9.230;2023-07-02T12:17:49;16.90;;;14.97;;
4508;SDS011;2267;48.816;9.230;2023-07-02T12:20:16;15.73;;;14.20;;
4508;SDS011;2267;48.816;9.230;2023-07-02T12:22:43;16.73;;;14.97;;
4508;SDS011;2267;48.816;9.230;2023-07-02T12:25:10;17.40;;;15.70;;
4508;SDS011;2267;48.816;9.230;2023-07-02T12:27:37;15.90;;;14.33;;
4508;SDS011;2267;48.816;9.230;2023-07-02T12:30:04;17.53;;;13.53;;
4508;SDS011;2267;48.816;9.230;2023-07-02T12:32:32;16.03;;;14.57;;
4508;SDS011;2267;48.816;9.230;2023-07-02T12:34:59;16.20;;;14.60;;
4508;SDS011;2267;48.816;9.230;2023-07-02T12:37:25;16.37;;;14.77;;
4508;SDS011;2267;48.816;9.230;2023-07-02T12:39:52;15.50;;;13.93;;
4508;SDS011;2267;48.816;9.230;2023-07-02T12:42:19;18.33;;;14.77;;
4508;SDS011;2267;48.816;9.230;2023-07-02T12:44:46;15.87;;;14.27;;
4508;SDS011;2267;48.816;9.230;2023-07-02T12:47:13;14.83;;;13.20;;
4508;SDS011;2267;48.816;9.230;2023-07-02T12:49:39;16.60;;;14.67;;
4508;SDS011;2267;48.816;9.230;2023-07-02T12:52:06;17.27;;;15.30;;
4508;SDS011;2267;48.816;9.230;2023-07-02T12:54:33;17.53;;;13.87;;
4508;SDS011;2267;48.816;9.230;2023-07-02T12:57:00;16.17;;;14.53;;
4508;SDS011;2267;48.816;9.230;2023-07-02T12:59:27;15.67;;;14.07;;
4508;SDS011;2267;48.816;9.230;2023-07-02T13:01:54;16.10;;;14.50;;
4508;SDS011;2267;48.816;9.230;2023-07-02T13:04:21;15.73;;;13.97;;
4508;SDS011;2267;48.816;9.230;2023-07-02T13:06:48;15.90;;;14.23;;
4508;SDS011;2267;48.816;9.230;2023-07-02T13:09:14;16.33;;;14.37;;
4508;SDS011;2267;48.816;9.230;2023-07-02T13:11:41;18.67;;;15.23;;
4508;SDS011;2267;48.816;9.230;2023-07-02T13:14:08;16.43;;;14.73;;
4508;SDS011;2267;48.816;9.230;2023-07-02T13:16:35;21.10;;;14.70;;
4508;SDS011;2267;48.816;9.230;2023-07-02T13:19:02;14.40;;;13.00;;
4508;SDS011;2267;48.816;9.230;2023-07-02T13:21:29;14.33;;;12.90;;
4508;SDS011;2267;48.816;9.230;2023-07-02T13:23:56;15.43;;;13.83;;
4508;SDS011;2267;48.816;9.230;2023-07-02T13:26:22;17.30;;;14.27;;
4508;SDS011;2267;48.816;9.230;2023-07-02T13:28:49;16.57;;;14.77;;
4508;SDS011;2267;48.816;9.230;2023-07-02T13:31:16;15.57;;;14.00;;
4508;SDS011;2267;48.816;9.230;2023-07-02T13:33:43;15.47;;;13.90;;
4508;SDS011;2267;48.816;9.230;2023-07-02T13:36:11;15.83;;;14.20;;
4508;SDS011;2267;48.816;9.230;2023-07-02T13:38:38;18.03;;;14.90;;
4508;SDS011;2267;48.816;9.230;2023-07-02T13:41:04;16.93;;;15.13;;
4508;SDS011;2267;48.816;9.230;2023-07-02T13:43:31;16.03;;;14.47;;
4508;SDS011;2267;48.816;9.230;2023-07-02T13:45:58;16.97;;;14.20;;
4508;SDS011;2267;48.816;9.230;2023-07-02T13:48:25;17.10;;;15.53;;
4508;SDS011;2267;48.816;9.230;2023-07-02T13:50:54;17.57;;;14.30;;
4508;SDS011;2267;48.816;9.230;2023-07-02T13:53:21;15.97;;;14.30;;
4508;SDS011;2267;48.816;9.230;2023-07-02T13:55:47;17.00;;;15.27;;
4508;SDS011;2267;48.816;9.230;2023-07-02T13:58:15;16.33;;;14.20;;
4508;SDS011;2267;48.816;9.230;2023-07-02T14:00:55;16.60;;;14.90;;
4508;SDS011;2267;48.816;9.230;2023-07-02T14:03:22;14.20;;;12.73;;
4508;SDS011;2267;48.816;9.230;2023-07-02T14:05:49;18.13;;;14.10;;
4508;SDS011;2267;48.816;9.230;2023-07-02T14:08:17;16.73;;;14.77;;
4508;SDS011;2267;48.816;9.230;2023-07-02T14:10:43;15.27;;;13.73;;
4508;SDS011;2267;48.816;9.230;2023-07-02T14:13:10;16.27;;;14.67;;
4508;SDS011;2267;48.816;9.230;2023-07-02T14:15:37;14.63;;;13.23;;
4508;SDS011;2267;48.816;9.230;2023-07-02T14:18:04;16.20;;;14.50;;
4508;SDS011;2267;48.816;9.230;2023-07-02T14:20:32;16.10;;;14.40;;
4508;SDS011;2267;48.816;9.230;2023-07-02T14:22:58;14.77;;;13.37;;
4508;SDS011;2267;48.816;9.230;2023-07-02T14:25:25;18.43;;;15.17;;
4508;SDS011;2267;48.816;9.230;2023-07-02T14:28:07;15.80;;;14.30;;
4508;SDS011;2267;48.816;9.230;2023-07-02T14:30:34;15.37;;;13.77;;
4508;SDS011;2267;48.816;9.230;2023-07-02T14:33:01;15.00;;;13.40;;
4508;SDS011;2267;48.816;9.230;2023-07-02T14:35:29;15.30;;;13.80;;
4508;SDS011;2267;48.816;9.230;2023-07-02T14:37:57;16.00;;;14.33;;
4508;SDS011;2267;48.816;9.230;2023-07-02T14:40:24;15.50;;;13.90;;
4508;SDS011;2267;48.816;9.230;2023-07-02T14:42:51;15.03;;;13.43;;
4508;SDS011;2267;48.816;9.230;2023-07-02T14:45:18;15.30;;;13.80;;
4508;SDS011;2267;48.816;9.230;2023-07-02T14:47:45;15.23;;;13.73;;
4508;SDS011;2267;48.816;9.230;2023-07-02T14:50:12;19.00;;;14.43;;
4508;SDS011;2267;48.816;9.230;2023-07-02T14:52:39;15.23;;;13.73;;
4508;SDS011;2267;48.816;9.230;2023-07-02T14:55:05;15.80;;;14.30;;
4508;SDS011;2267;48.816;9.230;2023-07-02T14:57:33;15.53;;;14.00;;
4508;SDS011;2267;48.816;9.230;2023-07-02T14:59:59;15.60;;;14.10;;
4508;SDS011;2267;48.816;9.230;2023-07-02T15:02:26;14.07;;;12.67;;
4508;SDS011;2267;48.816;9.230;2023-07-02T15:04:53;15.90;;;14.40;;
4508;SDS011;2267;48.816;9.230;2023-07-02T15:07:20;15.43;;;13.83;;
4508;SDS011;2267;48.816;9.230;2023-07-02T15:09:48;15.63;;;14.03;;
4508;SDS011;2267;48.816;9.230;2023-07-02T15:12:15;15.23;;;13.73;;
4508;SDS011;2267;48.816;9.230;2023-07-02T15:14:42;16.13;;;13.60;;
4508;SDS011;2267;48.816;9.230;2023-07-02T15:17:09;15.30;;;13.70;;
4508;SDS011;2267;48.816;9.230;2023-07-02T15:19:36;15.50;;;13.80;;
4508;SDS011;2267;48.816;9.230;2023-07-02T15:22:03;16.67;;;15.07;;
4508;SDS011;2267;48.816;9.230;2023-07-02T15:24:30;14.37;;;12.87;;